sensor_id;sensor_type;location;lat;lon;timestamp;P1;durP1;ratioP1;P2;durP2;ratioP2
8048;SDS011;20935;42.660;23.342;2023-06-24T00:01:49;6.10;;;5.60;;
8048;SDS011;20935;42.660;23.342;2023-06-24T00:04:34;6.40;;;5.73;;
8048;SDS011;20935;42.660;23.342;2023-06-24T00:07:20;5.57;;;5.17;;
8048;SDS011;20935;42.660;23.342;2023-06-24T00:10:06;6.10;;;5.50;;
8048;SDS011;20935;42.660;23.342;2023-06-24T00:12:52;6.07;;;5.50;;
8048;SDS011;20935;42.660;23.342;2023-06-24T00:15:37;6.13;;;5.63;;
8048;SDS011;20935;42.660;23.342;2023-06-24T00:18:27;6.40;;;5.87;;
8048;SDS011;20935;42.660;23.342;2023-06-24T00:21:13;5.77;;;5.27;;
8048;SDS011;20935;42.660;23.342;2023-06-24T00:24:00;6.23;;;5.70;;
8048;SDS011;20935;42.660;23.342;2023-06-24T00:26:48;6.67;;;6.07;;
8048;SDS011;20935;42.660;23.342;2023-06-24T00:29:33;6.50;;;5.90;;
8048;SDS011;20935;42.660;23.342;2023-06-24T00:32:19;6.30;;;5.63;;
8048;SDS011;20935;42.660;23.342;2023-06-24T00:35:06;6.17;;;5.67;;
8048;SDS011;20935;42.660;23.342;2023-06-24T00:37:52;6.60;;;6.00;;
8048;SDS011;20935;42.660;23.342;2023-06-24T00:40:41;6.77;;;6.13;;
8048;SDS011;20935;42.660;23.342;2023-06-24T00:43:27;6.47;;;5.93;;
8048;SDS011;20935;42.660;23.342;2023-06-24T00:46:14;6.90;;;6.30;;
8048;SDS011;20935;42.660;23.342;2023-06-24T00:48:59;8.33;;;7.47;;
8048;SDS011;20935;42.660;23.342;2023-06-24T00:51:47;7.67;;;6.87;;
8048;SDS011;20935;42.660;23.342;2023-06-24T00:54:34;8.50;;;7.73;;
8048;SDS011;20935;42.660;23.342;2023-06-24T00:57:19;9.03;;;7.43;;
8048;SDS011;20935;42.660;23.342;2023-06-24T01:00:07;11.63;;;7.87;;
8048;SDS011;20935;42.660;23.342;2023-06-24T01:02:57;9.07;;;8.27;;
8048;SDS011;20935;42.660;23.342;2023-06-24T01:05:43;10.00;;;8.37;;
8048;SDS011;20935;42.660;23.342;2023-06-24T01:08:31;9.80;;;8.80;;
8048;SDS011;20935;42.660;23.342;2023-06-24T01:11:16;10.07;;;8.50;;
8048;SDS011;20935;42.660;23.342;2023-06-24T01:14:02;9.93;;;8.80;;
8048;SDS011;20935;42.660;23.342;2023-06-24T01:16:49;10.47;;;8.60;;
8048;SDS011;20935;42.660;23.342;2023-06-24T01:19:50;10.00;;;9.00;;
8048;SDS011;20935;42.660;23.342;2023-06-24T01:23:06;9.37;;;8.47;;
8048;SDS011;20935;42.660;23.342;2023-06-24T01:32:56;9.20;;;8.40;;
8048;SDS011;20935;42.660;23.342;2023-06-24T01:35:44;10.40;;;9.30;;
8048;SDS011;20935;42.660;23.342;2023-06-24T01:38:35;10.23;;;9.23;;
8048;SDS011;20935;42.660;23.342;2023-06-24T01:41:25;9.63;;;8.63;;
8048;SDS011;20935;42.660;23.342;2023-06-24T01:44:16;10.13;;;9.17;;
8048;SDS011;20935;42.660;23.342;2023-06-24T01:47:03;9.80;;;8.87;;
8048;SDS011;20935;42.660;23.342;2023-06-24T01:49:54;11.47;;;9.23;;
8048;SDS011;20935;42.660;23.342;2023-06-24T01:52:43;10.77;;;9.73;;
8048;SDS011;20935;42.660;23.342;2023-06-24T01:55:29;10.13;;;9.13;;
8048;SDS011;20935;42.660;23.342;2023-06-24T01:58:17;10.57;;;9.47;;
8048;SDS011;20935;42.660;23.342;2023-06-24T02:01:06;11.90;;;10.17;;
8048;SDS011;20935;42.660;23.342;2023-06-24T02:03:52;12.93;;;11.17;;
8048;SDS011;20935;42.660;23.342;2023-06-24T02:06:41;10.17;;;9.17;;
8048;SDS011;20935;42.660;23.342;2023-06-24T02:09:29;10.40;;;9.50;;
8048;SDS011;20935;42.660;23.342;2023-06-24T02:12:17;10.80;;;9.80;;
8048;SDS011;20935;42.660;23.342;2023-06-24T02:15:03;10.83;;;9.73;;
8048;SDS011;20935;42.660;23.342;2023-06-24T02:17:50;10.97;;;9.87;;
8048;SDS011;20935;42.660;23.342;2023-06-24T02:20:40;10.73;;;9.67;;
8048;SDS011;20935;42.660;23.342;2023-06-24T02:23:29;11.10;;;10.00;;
8048;SDS011;20935;42.660;23.342;2023-06-24T02:26:15;11.00;;;10.00;;
8048;SDS011;20935;42.660;23.342;2023-06-24T02:29:01;10.90;;;9.80;;
8048;SDS011;20935;42.660;23.342;2023-06-24T02:31:48;11.00;;;9.90;;
8048;SDS011;20935;42.660;23.342;2023-06-24T02:34:34;10.90;;;9.80;;
8048;SDS011;20935;42.660;23.342;2023-06-24T02:37:19;11.27;;;10.17;;
8048;SDS011;20935;42.660;23.342;2023-06-24T02:40:07;10.87;;;9.77;;
8048;SDS011;20935;42.660;23.342;2023-06-24T02:42:53;12.87;;;10.00;;
8048;SDS011;20935;42.660;23.342;2023-06-24T02:45:39;11.67;;;10.03;;
8048;SDS011;20935;42.660;23.342;2023-06-24T02:48:24;10.27;;;9.30;;
8048;SDS011;20935;42.660;23.342;2023-06-24T02:51:10;10.47;;;9.57;;
8048;SDS011;20935;42.660;23.342;2023-06-24T02:53:56;10.53;;;9.43;;
8048;SDS011;20935;42.660;23.342;2023-06-24T02:56:44;11.37;;;10.37;;
8048;SDS011;20935;42.660;23.342;2023-06-24T02:59:29;11.67;;;10.03;;
8048;SDS011;20935;42.660;23.342;2023-06-24T03:02:15;11.67;;;10.47;;
8048;SDS011;20935;42.660;23.342;2023-06-24T03:05:01;12.57;;;10.97;;
8048;SDS011;20935;42.660;23.342;2023-06-24T03:07:48;11.03;;;10.03;;
8048;SDS011;20935;42.660;23.342;2023-06-24T03:10:35;11.67;;;10.57;;
8048;SDS011;20935;42.660;23.342;2023-06-24T03:13:23;11.73;;;10.30;;
8048;SDS011;20935;42.660;23.342;2023-06-24T03:16:08;11.17;;;10.03;;
8048;SDS011;20935;42.660;23.342;2023-06-24T03:18:56;11.70;;;10.60;;
8048;SDS011;20935;42.660;23.342;2023-06-24T03:21:41;10.87;;;9.70;;
8048;SDS011;20935;42.660;23.342;2023-06-24T03:24:27;12.13;;;10.93;;
8048;SDS011;20935;42.660;23.342;2023-06-24T03:27:12;13.93;;;11.47;;
8048;SDS011;20935;42.660;23.342;2023-06-24T03:29:59;11.93;;;10.63;;
8048;SDS011;20935;42.660;23.342;2023-06-24T03:32:44;11.77;;;10.57;;
8048;SDS011;20935;42.660;23.342;2023-06-24T03:35:30;13.30;;;10.67;;
8048;SDS011;20935;42.660;23.342;2023-06-24T03:38:16;12.70;;;11.40;;
8048;SDS011;20935;42.660;23.342;2023-06-24T03:41:01;15.13;;;12.07;;
8048;SDS011;20935;42.660;23.342;2023-06-24T03:43:47;12.23;;;11.13;;
8048;SDS011;20935;42.660;23.342;2023-06-24T03:46:33;11.73;;;10.57;;
8048;SDS011;20935;42.660;23.342;2023-06-24T03:49:19;11.93;;;10.73;;
8048;SDS011;20935;42.660;23.342;2023-06-24T03:52:05;11.93;;;10.73;;
8048;SDS011;20935;42.660;23.342;2023-06-24T03:54:52;11.27;;;10.23;;
8048;SDS011;20935;42.660;23.342;2023-06-24T03:57:38;13.10;;;10.63;;
8048;SDS011;20935;42.660;23.342;2023-06-24T04:00:24;11.40;;;10.30;;
8048;SDS011;20935;42.660;23.342;2023-06-24T04:03:10;12.63;;;11.17;;
8048;SDS011;20935;42.660;23.342;2023-06-24T04:05:56;12.17;;;10.47;;
8048;SDS011;20935;42.660;23.342;2023-06-24T04:08:41;12.90;;;11.40;;
8048;SDS011;20935;42.660;23.342;2023-06-24T04:11:27;12.00;;;10.90;;
8048;SDS011;20935;42.660;23.342;2023-06-24T04:14:13;12.63;;;11.43;;
8048;SDS011;20935;42.660;23.342;2023-06-24T04:16:58;14.23;;;10.90;;
8048;SDS011;20935;42.660;23.342;2023-06-24T04:19:45;13.60;;;11.20;;
8048;SDS011;20935;42.660;23.342;2023-06-24T04:22:30;14.37;;;11.43;;
8048;SDS011;20935;42.660;23.342;2023-06-24T04:25:16;13.67;;;11.07;;
8048;SDS011;20935;42.660;23.342;2023-06-24T04:28:01;12.03;;;10.90;;
8048;SDS011;20935;42.660;23.342;2023-06-24T04:30:46;14.00;;;11.77;;
8048;SDS011;20935;42.660;23.342;2023-06-24T04:33:32;12.67;;;11.40;;
8048;SDS011;20935;42.660;23.342;2023-06-24T04:36:19;14.73;;;11.03;;
8048;SDS011;20935;42.660;23.342;2023-06-24T04:39:04;13.20;;;11.90;;
8048;SDS011;20935;42.660;23.342;2023-06-24T04:41:50;13.83;;;11.87;;
8048;SDS011;20935;42.660;23.342;2023-06-24T04:44:35;13.50;;;11.70;;
8048;SDS011;20935;42.660;23.342;2023-06-24T04:47:21;13.33;;;11.83;;
8048;SDS011;20935;42.660;23.342;2023-06-24T04:50:07;12.80;;;11.50;;
8048;SDS011;20935;42.660;23.342;2023-06-24T04:52:58;14.10;;;11.77;;
8048;SDS011;20935;42.660;23.342;2023-06-24T04:55:45;12.90;;;11.60;;
8048;SDS011;20935;42.660;23.342;2023-06-24T04:58:31;14.03;;;11.77;;
8048;SDS011;20935;42.660;23.342;2023-06-24T05:01:17;13.53;;;12.20;;
8048;SDS011;20935;42.660;23.342;2023-06-24T05:04:02;13.73;;;12.33;;
8048;SDS011;20935;42.660;23.342;2023-06-24T05:06:48;13.83;;;12.57;;
8048;SDS011;20935;42.660;23.342;2023-06-24T05:09:34;13.33;;;11.93;;
8048;SDS011;20935;42.660;23.342;2023-06-24T05:12:21;13.77;;;12.37;;
8048;SDS011;20935;42.660;23.342;2023-06-24T05:15:07;14.17;;;12.23;;
8048;SDS011;20935;42.660;23.342;2023-06-24T05:17:53;13.13;;;11.77;;
8048;SDS011;20935;42.660;23.342;2023-06-24T05:20:39;17.30;;;11.87;;
8048;SDS011;20935;42.660;23.342;2023-06-24T05:23:24;13.43;;;12.03;;
8048;SDS011;20935;42.660;23.342;2023-06-24T05:26:11;13.43;;;11.70;;
8048;SDS011;20935;42.660;23.342;2023-06-24T05:28:56;13.03;;;11.27;;
8048;SDS011;20935;42.660;23.342;2023-06-24T05:31:42;13.17;;;11.20;;
8048;SDS011;20935;42.660;23.342;2023-06-24T05:34:27;12.57;;;11.30;;
8048;SDS011;20935;42.660;23.342;2023-06-24T05:37:13;16.00;;;12.37;;
8048;SDS011;20935;42.660;23.342;2023-06-24T05:39:58;15.47;;;11.97;;
8048;SDS011;20935;42.660;23.342;2023-06-24T05:42:46;13.77;;;12.20;;
8048;SDS011;20935;42.660;23.342;2023-06-24T05:45:31;12.80;;;10.90;;
8048;SDS011;20935;42.660;23.342;2023-06-24T05:48:17;12.17;;;11.03;;
8048;SDS011;20935;42.660;23.342;2023-06-24T05:51:02;12.30;;;11.00;;
8048;SDS011;20935;42.660;23.342;2023-06-24T05:53:48;11.93;;;10.83;;
8048;SDS011;20935;42.660;23.342;2023-06-24T05:56:33;12.47;;;11.27;;
8048;SDS011;20935;42.660;23.342;2023-06-24T05:59:21;14.17;;;11.77;;
8048;SDS011;20935;42.660;23.342;2023-06-24T06:02:06;12.20;;;10.93;;
8048;SDS011;20935;42.660;23.342;2023-06-24T06:04:52;10.97;;;9.87;;
8048;SDS011;20935;42.660;23.342;2023-06-24T06:07:37;12.53;;;11.30;;
8048;SDS011;20935;42.660;23.342;2023-06-24T06:10:23;12.50;;;11.20;;
8048;SDS011;20935;42.660;23.342;2023-06-24T06:13:08;12.90;;;11.50;;
8048;SDS011;20935;42.660;23.342;2023-06-24T06:15:55;12.23;;;11.10;;
8048;SDS011;20935;42.660;23.342;2023-06-24T06:18:40;14.33;;;11.47;;
8048;SDS011;20935;42.660;23.342;2023-06-24T06:21:26;13.10;;;11.70;;
8048;SDS011;20935;42.660;23.342;2023-06-24T06:24:11;12.43;;;11.23;;
8048;SDS011;20935;42.660;23.342;2023-06-24T06:26:57;12.67;;;11.37;;
8048;SDS011;20935;42.660;23.342;2023-06-24T06:29:43;13.57;;;11.60;;
8048;SDS011;20935;42.660;23.342;2023-06-24T06:32:30;13.80;;;12.40;;
8048;SDS011;20935;42.660;23.342;2023-06-24T06:35:15;13.43;;;12.13;;
8048;SDS011;20935;42.660;23.342;2023-06-24T06:38:00;15.17;;;12.50;;
8048;SDS011;20935;42.660;23.342;2023-06-24T06:40:46;13.20;;;11.90;;
8048;SDS011;20935;42.660;23.342;2023-06-24T06:43:32;13.67;;;12.43;;
8048;SDS011;20935;42.660;23.342;2023-06-24T06:46:18;12.70;;;11.37;;
8048;SDS011;20935;42.660;23.342;2023-06-24T06:49:04;14.23;;;12.23;;
8048;SDS011;20935;42.660;23.342;2023-06-24T06:51:49;12.53;;;11.33;;
8048;SDS011;20935;42.660;23.342;2023-06-24T06:54:36;13.37;;;12.07;;
8048;SDS011;20935;42.660;23.342;2023-06-24T06:57:22;14.13;;;11.37;;
8048;SDS011;20935;42.660;23.342;2023-06-24T07:00:08;11.67;;;10.57;;
8048;SDS011;20935;42.660;23.342;2023-06-24T07:02:54;15.03;;;11.20;;
8048;SDS011;20935;42.660;23.342;2023-06-24T07:05:40;11.20;;;10.20;;
8048;SDS011;20935;42.660;23.342;2023-06-24T07:08:26;12.23;;;9.93;;
8048;SDS011;20935;42.660;23.342;2023-06-24T07:11:11;11.50;;;10.30;;
8048;SDS011;20935;42.660;23.342;2023-06-24T07:13:57;13.40;;;10.67;;
8048;SDS011;20935;42.660;23.342;2023-06-24T07:16:42;10.17;;;9.10;;
8048;SDS011;20935;42.660;23.342;2023-06-24T07:19:28;10.47;;;9.37;;
8048;SDS011;20935;42.660;23.342;2023-06-24T07:22:15;11.80;;;10.63;;
8048;SDS011;20935;42.660;23.342;2023-06-24T07:25:00;9.50;;;8.60;;
8048;SDS011;20935;42.660;23.342;2023-06-24T07:27:46;10.90;;;9.90;;
8048;SDS011;20935;42.660;23.342;2023-06-24T07:30:32;10.43;;;9.33;;
8048;SDS011;20935;42.660;23.342;2023-06-24T07:33:17;12.50;;;10.13;;
8048;SDS011;20935;42.660;23.342;2023-06-24T07:36:04;11.20;;;10.10;;
8048;SDS011;20935;42.660;23.342;2023-06-24T07:38:51;10.30;;;9.23;;
8048;SDS011;20935;42.660;23.342;2023-06-24T07:41:37;10.03;;;9.13;;
8048;SDS011;20935;42.660;23.342;2023-06-24T07:44:22;9.80;;;8.80;;
8048;SDS011;20935;42.660;23.342;2023-06-24T07:47:08;10.20;;;9.20;;
8048;SDS011;20935;42.660;23.342;2023-06-24T07:49:53;9.70;;;8.77;;
8048;SDS011;20935;42.660;23.342;2023-06-24T07:52:40;9.57;;;8.67;;
8048;SDS011;20935;42.660;23.342;2023-06-24T07:55:27;9.47;;;8.57;;
8048;SDS011;20935;42.660;23.342;2023-06-24T07:58:12;9.90;;;8.90;;
8048;SDS011;20935;42.660;23.342;2023-06-24T08:00:58;9.60;;;8.70;;
8048;SDS011;20935;42.660;23.342;2023-06-24T08:03:44;9.00;;;8.20;;
8048;SDS011;20935;42.660;23.342;2023-06-24T08:06:29;9.53;;;8.63;;
8048;SDS011;20935;42.660;23.342;2023-06-24T08:09:15;9.47;;;8.57;;
8048;SDS011;20935;42.660;23.342;2023-06-24T08:12:02;9.53;;;8.63;;
8048;SDS011;20935;42.660;23.342;2023-06-24T08:14:48;9.00;;;8.17;;
8048;SDS011;20935;42.660;23.342;2023-06-24T08:17:34;9.07;;;8.27;;
8048;SDS011;20935;42.660;23.342;2023-06-24T08:20:19;8.97;;;8.17;;
8048;SDS011;20935;42.660;23.342;2023-06-24T08:23:05;9.03;;;7.60;;
8048;SDS011;20935;42.660;23.342;2023-06-24T08:25:50;8.60;;;7.90;;
8048;SDS011;20935;42.660;23.342;2023-06-24T08:28:37;8.60;;;7.77;;
8048;SDS011;20935;42.660;23.342;2023-06-24T08:31:22;8.47;;;7.77;;
8048;SDS011;20935;42.660;23.342;2023-06-24T08:34:08;9.33;;;8.43;;
8048;SDS011;20935;42.660;23.342;2023-06-24T08:36:54;8.53;;;7.73;;
8048;SDS011;20935;42.660;23.342;2023-06-24T08:39:39;8.23;;;7.43;;
8048;SDS011;20935;42.660;23.342;2023-06-24T08:42:25;8.63;;;7.70;;
8048;SDS011;20935;42.660;23.342;2023-06-24T08:45:12;8.40;;;7.60;;
8048;SDS011;20935;42.660;23.342;2023-06-24T08:47:57;8.50;;;7.70;;
8048;SDS011;20935;42.660;23.342;2023-06-24T08:50:46;8.00;;;7.30;;
8048;SDS011;20935;42.660;23.342;2023-06-24T08:53:35;8.87;;;8.07;;
8048;SDS011;20935;42.660;23.342;2023-06-24T08:56:22;8.37;;;7.60;;
8048;SDS011;20935;42.660;23.342;2023-06-24T08:59:08;7.93;;;7.23;;
8048;SDS011;20935;42.660;23.342;2023-06-24T09:01:55;8.00;;;7.13;;
8048;SDS011;20935;42.660;23.342;2023-06-24T09:04:40;8.10;;;7.30;;
8048;SDS011;20935;42.660;23.342;2023-06-24T09:07:26;11.23;;;7.47;;
8048;SDS011;20935;42.660;23.342;2023-06-24T09:10:15;7.33;;;6.73;;
8048;SDS011;20935;42.660;23.342;2023-06-24T09:13:14;7.47;;;6.77;;
8048;SDS011;20935;42.660;23.342;2023-06-24T09:16:00;8.33;;;6.83;;
8048;SDS011;20935;42.660;23.342;2023-06-24T09:18:58;7.17;;;6.50;;
8048;SDS011;20935;42.660;23.342;2023-06-24T09:21:44;10.40;;;6.73;;
8048;SDS011;20935;42.660;23.342;2023-06-24T09:24:30;7.30;;;6.60;;
8048;SDS011;20935;42.660;23.342;2023-06-24T09:27:17;10.07;;;8.00;;
8048;SDS011;20935;42.660;23.342;2023-06-24T09:30:11;17.43;;;8.50;;
8048;SDS011;20935;42.660;23.342;2023-06-24T09:33:03;12.03;;;7.63;;
8048;SDS011;20935;42.660;23.342;2023-06-24T09:35:50;10.13;;;7.87;;
8048;SDS011;20935;42.660;23.342;2023-06-24T09:38:36;10.10;;;7.20;;
8048;SDS011;20935;42.660;23.342;2023-06-24T09:41:25;10.57;;;7.70;;
8048;SDS011;20935;42.660;23.342;2023-06-24T09:44:11;13.00;;;8.00;;
8048;SDS011;20935;42.660;23.342;2023-06-24T09:46:56;9.07;;;7.27;;
8048;SDS011;20935;42.660;23.342;2023-06-24T09:49:41;10.60;;;7.70;;
8048;SDS011;20935;42.660;23.342;2023-06-24T09:52:28;9.00;;;7.37;;
8048;SDS011;20935;42.660;23.342;2023-06-24T09:55:16;12.00;;;8.00;;
8048;SDS011;20935;42.660;23.342;2023-06-24T09:58:03;8.13;;;7.33;;
8048;SDS011;20935;42.660;23.342;2023-06-24T10:00:49;8.80;;;6.93;;
8048;SDS011;20935;42.660;23.342;2023-06-24T10:03:36;8.03;;;7.23;;
8048;SDS011;20935;42.660;23.342;2023-06-24T10:06:22;10.57;;;8.00;;
8048;SDS011;20935;42.660;23.342;2023-06-24T10:09:10;8.40;;;7.57;;
8048;SDS011;20935;42.660;23.342;2023-06-24T10:11:57;9.33;;;7.20;;
8048;SDS011;20935;42.660;23.342;2023-06-24T10:14:43;8.00;;;7.20;;
8048;SDS011;20935;42.660;23.342;2023-06-24T10:17:29;7.30;;;6.60;;
8048;SDS011;20935;42.660;23.342;2023-06-24T10:20:18;8.40;;;7.43;;
8048;SDS011;20935;42.660;23.342;2023-06-24T10:23:10;7.87;;;7.03;;
8048;SDS011;20935;42.660;23.342;2023-06-24T10:25:57;9.23;;;7.63;;
8048;SDS011;20935;42.660;23.342;2023-06-24T10:32:05;9.30;;;7.97;;
8048;SDS011;20935;42.660;23.342;2023-06-24T10:34:54;7.73;;;6.93;;
8048;SDS011;20935;42.660;23.342;2023-06-24T10:37:47;7.63;;;7.00;;
8048;SDS011;20935;42.660;23.342;2023-06-24T10:40:41;7.57;;;6.77;;
8048;SDS011;20935;42.660;23.342;2023-06-24T10:43:29;8.17;;;7.37;;
8048;SDS011;20935;42.660;23.342;2023-06-24T10:46:14;7.43;;;6.73;;
8048;SDS011;20935;42.660;23.342;2023-06-24T10:49:00;8.80;;;7.70;;
8048;SDS011;20935;42.660;23.342;2023-06-24T10:51:45;8.73;;;7.20;;
8048;SDS011;20935;42.660;23.342;2023-06-24T10:54:31;7.70;;;7.00;;
8048;SDS011;20935;42.660;23.342;2023-06-24T10:57:20;7.73;;;6.93;;
8048;SDS011;20935;42.660;23.342;2023-06-24T11:00:10;6.90;;;6.10;;
8048;SDS011;20935;42.660;23.342;2023-06-24T11:02:56;8.07;;;7.27;;
8048;SDS011;20935;42.660;23.342;2023-06-24T11:05:42;8.10;;;7.30;;
8048;SDS011;20935;42.660;23.342;2023-06-24T11:08:29;8.27;;;7.47;;
8048;SDS011;20935;42.660;23.342;2023-06-24T11:11:20;7.40;;;6.60;;
8048;SDS011;20935;42.660;23.342;2023-06-24T11:14:06;7.77;;;7.07;;
8048;SDS011;20935;42.660;23.342;2023-06-24T11:16:53;7.63;;;7.00;;
8048;SDS011;20935;42.660;23.342;2023-06-24T11:19:38;7.40;;;6.70;;
8048;SDS011;20935;42.660;23.342;2023-06-24T11:22:25;7.17;;;6.47;;
8048;SDS011;20935;42.660;23.342;2023-06-24T11:25:15;9.43;;;7.30;;
8048;SDS011;20935;42.660;23.342;2023-06-24T11:28:01;7.40;;;6.70;;
8048;SDS011;20935;42.660;23.342;2023-06-24T11:30:46;7.90;;;6.80;;
8048;SDS011;20935;42.660;23.342;2023-06-24T11:33:33;7.53;;;6.63;;
8048;SDS011;20935;42.660;23.342;2023-06-24T11:36:19;7.73;;;6.20;;
8048;SDS011;20935;42.660;23.342;2023-06-24T11:39:04;8.07;;;6.37;;
8048;SDS011;20935;42.660;23.342;2023-06-24T11:41:50;6.77;;;6.20;;
8048;SDS011;20935;42.660;23.342;2023-06-24T11:44:40;7.07;;;6.47;;
8048;SDS011;20935;42.660;23.342;2023-06-24T11:47:27;6.83;;;6.23;;
8048;SDS011;20935;42.660;23.342;2023-06-24T11:50:18;6.90;;;6.20;;
8048;SDS011;20935;42.660;23.342;2023-06-24T11:53:10;7.43;;;6.73;;
8048;SDS011;20935;42.660;23.342;2023-06-24T11:55:55;7.10;;;6.50;;
8048;SDS011;20935;42.660;23.342;2023-06-24T11:58:42;7.43;;;6.53;;
8048;SDS011;20935;42.660;23.342;2023-06-24T12:01:30;6.70;;;6.10;;
8048;SDS011;20935;42.660;23.342;2023-06-24T12:04:15;7.20;;;6.50;;
8048;SDS011;20935;42.660;23.342;2023-06-24T12:07:02;7.10;;;5.93;;
8048;SDS011;20935;42.660;23.342;2023-06-24T12:09:48;6.87;;;6.23;;
8048;SDS011;20935;42.660;23.342;2023-06-24T12:12:33;6.47;;;5.87;;
8048;SDS011;20935;42.660;23.342;2023-06-24T12:15:19;6.93;;;6.33;;
8048;SDS011;20935;42.660;23.342;2023-06-24T12:18:04;7.00;;;6.30;;
8048;SDS011;20935;42.660;23.342;2023-06-24T12:20:50;6.60;;;6.00;;
8048;SDS011;20935;42.660;23.342;2023-06-24T12:23:37;6.53;;;5.93;;
8048;SDS011;20935;42.660;23.342;2023-06-24T12:26:22;6.63;;;6.03;;
8048;SDS011;20935;42.660;23.342;2023-06-24T12:29:07;6.57;;;5.97;;
8048;SDS011;20935;42.660;23.342;2023-06-24T12:31:53;6.17;;;5.67;;
8048;SDS011;20935;42.660;23.342;2023-06-24T12:34:38;16.63;;;7.13;;
8048;SDS011;20935;42.660;23.342;2023-06-24T12:37:24;7.20;;;6.00;;
8048;SDS011;20935;42.660;23.342;2023-06-24T12:40:11;13.20;;;6.63;;
8048;SDS011;20935;42.660;23.342;2023-06-24T12:42:56;7.93;;;6.73;;
8048;SDS011;20935;42.660;23.342;2023-06-24T12:45:43;20.37;;;10.30;;
8048;SDS011;20935;42.660;23.342;2023-06-24T12:48:29;15.40;;;7.67;;
8048;SDS011;20935;42.660;23.342;2023-06-24T12:51:15;15.37;;;7.53;;
8048;SDS011;20935;42.660;23.342;2023-06-24T12:54:01;17.50;;;7.77;;
8048;SDS011;20935;42.660;23.342;2023-06-24T12:56:48;15.37;;;7.90;;
8048;SDS011;20935;42.660;23.342;2023-06-24T12:59:33;8.50;;;6.77;;
8048;SDS011;20935;42.660;23.342;2023-06-24T13:02:19;14.57;;;8.17;;
8048;SDS011;20935;42.660;23.342;2023-06-24T13:05:04;11.60;;;7.43;;
8048;SDS011;20935;42.660;23.342;2023-06-24T13:07:50;11.80;;;8.23;;
8048;SDS011;20935;42.660;23.342;2023-06-24T13:10:35;11.03;;;7.53;;
8048;SDS011;20935;42.660;23.342;2023-06-24T13:13:23;9.10;;;7.33;;
8048;SDS011;20935;42.660;23.342;2023-06-24T13:16:09;10.57;;;7.77;;
8048;SDS011;20935;42.660;23.342;2023-06-24T13:18:54;8.63;;;7.00;;
8048;SDS011;20935;42.660;23.342;2023-06-24T13:21:40;11.53;;;7.00;;
8048;SDS011;20935;42.660;23.342;2023-06-24T13:24:25;11.23;;;7.33;;
8048;SDS011;20935;42.660;23.342;2023-06-24T13:27:11;8.57;;;7.00;;
8048;SDS011;20935;42.660;23.342;2023-06-24T13:29:58;9.43;;;7.17;;
8048;SDS011;20935;42.660;23.342;2023-06-24T13:32:43;10.03;;;7.20;;
8048;SDS011;20935;42.660;23.342;2023-06-24T13:35:29;12.53;;;7.60;;
8048;SDS011;20935;42.660;23.342;2023-06-24T13:38:14;7.57;;;6.77;;
8048;SDS011;20935;42.660;23.342;2023-06-24T13:40:59;9.60;;;6.77;;
8048;SDS011;20935;42.660;23.342;2023-06-24T13:43:45;11.17;;;6.77;;
8048;SDS011;20935;42.660;23.342;2023-06-24T13:46:32;10.80;;;7.67;;
8048;SDS011;20935;42.660;23.342;2023-06-24T13:49:18;7.47;;;6.70;;
8048;SDS011;20935;42.660;23.342;2023-06-24T13:52:03;7.37;;;6.57;;
8048;SDS011;20935;42.660;23.342;2023-06-24T13:54:49;7.20;;;6.50;;
8048;SDS011;20935;42.660;23.342;2023-06-24T13:57:35;7.13;;;6.43;;
8048;SDS011;20935;42.660;23.342;2023-06-24T14:00:20;12.70;;;7.47;;
8048;SDS011;20935;42.660;23.342;2023-06-24T14:03:07;8.10;;;5.73;;
8048;SDS011;20935;42.660;23.342;2023-06-24T14:05:52;7.87;;;7.13;;
8048;SDS011;20935;42.660;23.342;2023-06-24T14:08:38;7.37;;;6.60;;
8048;SDS011;20935;42.660;23.342;2023-06-24T14:11:23;9.23;;;7.40;;
8048;SDS011;20935;42.660;23.342;2023-06-24T14:14:09;8.63;;;6.63;;
8048;SDS011;20935;42.660;23.342;2023-06-24T14:16:54;7.47;;;6.43;;
8048;SDS011;20935;42.660;23.342;2023-06-24T14:19:41;7.77;;;7.03;;
8048;SDS011;20935;42.660;23.342;2023-06-24T14:22:27;8.43;;;6.40;;
8048;SDS011;20935;42.660;23.342;2023-06-24T14:25:12;7.50;;;6.57;;
8048;SDS011;20935;42.660;23.342;2023-06-24T14:27:58;7.57;;;6.77;;
8048;SDS011;20935;42.660;23.342;2023-06-24T14:30:43;8.77;;;6.43;;
8048;SDS011;20935;42.660;23.342;2023-06-24T14:33:29;7.53;;;6.77;;
8048;SDS011;20935;42.660;23.342;2023-06-24T14:36:16;7.50;;;6.77;;
8048;SDS011;20935;42.660;23.342;2023-06-24T14:39:01;9.80;;;6.60;;
8048;SDS011;20935;42.660;23.342;2023-06-24T14:41:46;9.63;;;6.67;;
8048;SDS011;20935;42.660;23.342;2023-06-24T14:44:32;8.80;;;6.37;;
8048;SDS011;20935;42.660;23.342;2023-06-24T14:47:17;8.07;;;6.43;;
8048;SDS011;20935;42.660;23.342;2023-06-24T14:50:03;8.40;;;6.97;;
8048;SDS011;20935;42.660;23.342;2023-06-24T14:52:50;8.10;;;6.83;;
8048;SDS011;20935;42.660;23.342;2023-06-24T14:55:35;7.93;;;6.57;;
8048;SDS011;20935;42.660;23.342;2023-06-24T14:58:21;8.20;;;6.13;;
8048;SDS011;20935;42.660;23.342;2023-06-24T15:01:06;7.30;;;6.37;;
8048;SDS011;20935;42.660;23.342;2023-06-24T15:03:52;7.03;;;6.00;;
8048;SDS011;20935;42.660;23.342;2023-06-24T15:06:37;8.07;;;6.13;;
8048;SDS011;20935;42.660;23.342;2023-06-24T15:09:24;6.73;;;5.87;;
8048;SDS011;20935;42.660;23.342;2023-06-24T15:12:10;7.60;;;6.00;;
8048;SDS011;20935;42.660;23.342;2023-06-24T15:14:55;9.50;;;6.27;;
8048;SDS011;20935;42.660;23.342;2023-06-24T15:17:41;5.90;;;5.40;;
8048;SDS011;20935;42.660;23.342;2023-06-24T15:20:28;7.00;;;6.07;;
8048;SDS011;20935;42.660;23.342;2023-06-24T15:23:14;7.30;;;6.13;;
8048;SDS011;20935;42.660;23.342;2023-06-24T15:26:00;8.70;;;6.60;;
8048;SDS011;20935;42.660;23.342;2023-06-24T15:28:45;6.83;;;5.63;;
8048;SDS011;20935;42.660;23.342;2023-06-24T15:31:31;7.33;;;6.30;;
8048;SDS011;20935;42.660;23.342;2023-06-24T15:34:17;6.23;;;5.63;;
8048;SDS011;20935;42.660;23.342;2023-06-24T15:37:02;6.73;;;6.00;;
8048;SDS011;20935;42.660;23.342;2023-06-24T15:39:48;7.00;;;6.13;;
8048;SDS011;20935;42.660;23.342;2023-06-24T15:42:35;10.33;;;6.73;;
8048;SDS011;20935;42.660;23.342;2023-06-24T15:45:21;7.10;;;6.07;;
8048;SDS011;20935;42.660;23.342;2023-06-24T15:48:06;6.00;;;5.50;;
8048;SDS011;20935;42.660;23.342;2023-06-24T15:50:51;7.20;;;6.10;;
8048;SDS011;20935;42.660;23.342;2023-06-24T15:53:36;6.80;;;6.00;;
8048;SDS011;20935;42.660;23.342;2023-06-24T15:56:22;6.53;;;5.77;;
8048;SDS011;20935;42.660;23.342;2023-06-24T15:59:10;7.93;;;6.37;;
8048;SDS011;20935;42.660;23.342;2023-06-24T16:01:55;6.67;;;6.07;;
8048;SDS011;20935;42.660;23.342;2023-06-24T16:04:41;6.77;;;6.07;;
8048;SDS011;20935;42.660;23.342;2023-06-24T16:07:26;7.03;;;6.00;;
8048;SDS011;20935;42.660;23.342;2023-06-24T16:10:12;7.10;;;6.40;;
8048;SDS011;20935;42.660;23.342;2023-06-24T16:12:57;6.93;;;6.23;;
8048;SDS011;20935;42.660;23.342;2023-06-24T16:15:44;7.60;;;6.73;;
8048;SDS011;20935;42.660;23.342;2023-06-24T16:18:30;7.83;;;5.80;;
8048;SDS011;20935;42.660;23.342;2023-06-24T16:21:15;6.73;;;6.13;;
8048;SDS011;20935;42.660;23.342;2023-06-24T16:24:00;6.53;;;5.70;;
8048;SDS011;20935;42.660;23.342;2023-06-24T16:26:46;6.23;;;5.70;;
8048;SDS011;20935;42.660;23.342;2023-06-24T16:29:32;6.87;;;6.17;;
8048;SDS011;20935;42.660;23.342;2023-06-24T16:32:18;7.67;;;6.43;;
8048;SDS011;20935;42.660;23.342;2023-06-24T16:35:04;6.70;;;6.00;;
8048;SDS011;20935;42.660;23.342;2023-06-24T16:37:51;6.30;;;5.70;;
8048;SDS011;20935;42.660;23.342;2023-06-24T16:40:36;6.27;;;5.63;;
8048;SDS011;20935;42.660;23.342;2023-06-24T16:43:22;6.67;;;5.73;;